RYR98 LZIB-LIRP
Flight info
| Callsign | RYR98 |
|---|---|
| Flight time | 1h 17m |
| Altitude | 36000 |
| Route | TOVKA DCT GRZ DCT RIFEN/N0435F350 DCT RCH DCT GAVRA DCT KUGIX Y662 AKUTO L12 MAREL |
| Aircraft | B738/M-SDE3FGILRWY/SB1 |
Departure
| Time | 2026-05-04 11:52 |
|---|---|
| Airport | M. R. Štefánik Airport (LZIB) |
Arrival
| Time | 2026-05-04 13:09 |
|---|---|
| Airport | Pisa International Airport (LIRP) |
| Time | Latitude | Longitude | Altitude | Speed | Heading |
|---|---|---|---|---|---|
| 2026-05-04 11:24 | 48.16877 | 17.20017 | 437 ft | 0 kts | 314° |
| 2026-05-04 11:44 | 48.16871 | 17.20027 | 424 ft | 4 kts | 315° |
| 2026-05-04 11:44 | 48.16850 | 17.20053 | 425 ft | 4 kts | 329° |
| 2026-05-04 11:44 | 48.16827 | 17.20066 | 431 ft | 4 kts | 12° |
| 2026-05-04 11:44 | 48.16816 | 17.20059 | 430 ft | 1 kts | 44° |
| 2026-05-04 11:48 | 48.16827 | 17.20074 | 423 ft | 5 kts | 43° |
| 2026-05-04 11:48 | 48.16862 | 17.20124 | 428 ft | 10 kts | 43° |
| 2026-05-04 11:48 | 48.16924 | 17.20211 | 424 ft | 14 kts | 43° |
| 2026-05-04 11:48 | 48.16998 | 17.20315 | 429 ft | 15 kts | 44° |
| 2026-05-04 11:49 | 48.17073 | 17.20423 | 423 ft | 15 kts | 44° |
| 2026-05-04 11:49 | 48.17141 | 17.20527 | 424 ft | 13 kts | 44° |
| 2026-05-04 11:49 | 48.17208 | 17.20569 | 428 ft | 10 kts | 354° |
| 2026-05-04 11:49 | 48.17261 | 17.20502 | 422 ft | 10 kts | 314° |
| 2026-05-04 11:50 | 48.17309 | 17.20426 | 428 ft | 10 kts | 313° |
| 2026-05-04 11:50 | 48.17357 | 17.20355 | 428 ft | 10 kts | 318° |
| 2026-05-04 11:50 | 48.17412 | 17.20302 | 425 ft | 10 kts | 344° |
| 2026-05-04 11:50 | 48.17482 | 17.20315 | 427 ft | 11 kts | 23° |
| 2026-05-04 11:51 | 48.17532 | 17.20388 | 423 ft | 7 kts | 56° |
| 2026-05-04 11:51 | 48.17535 | 17.20452 | 427 ft | 6 kts | 117° |
| 2026-05-04 11:51 | 48.17497 | 17.20512 | 423 ft | 15 kts | 134° |
| 2026-05-04 11:51 | 48.17264 | 17.20871 | 427 ft | 82 kts | 134° |
| 2026-05-04 11:52 | 48.16722 | 17.21710 | 424 ft | 140 kts | 135° |
| 2026-05-04 11:52 | 48.15970 | 17.22899 | 727 ft | 163 kts | 135° |
| 2026-05-04 11:52 | 48.15195 | 17.24127 | 1467 ft | 170 kts | 136° |
| 2026-05-04 11:52 | 48.14346 | 17.25390 | 2330 ft | 169 kts | 139° |
| 2026-05-04 11:53 | 48.13518 | 17.26668 | 3193 ft | 169 kts | 137° |
| 2026-05-04 11:53 | 48.12710 | 17.27965 | 3987 ft | 174 kts | 138° |
| 2026-05-04 11:53 | 48.11853 | 17.29312 | 4590 ft | 190 kts | 138° |
| 2026-05-04 11:53 | 48.10982 | 17.30889 | 5082 ft | 205 kts | 120° |
| 2026-05-04 11:55 | 48.17879 | 17.35380 | 8281 ft | 285 kts | 298° |
| 2026-05-04 11:55 | 48.19034 | 17.32959 | 9147 ft | 287 kts | 305° |
| 2026-05-04 11:56 | 48.20304 | 17.30627 | 9904 ft | 291 kts | 304° |
| 2026-05-04 11:56 | 48.21537 | 17.28177 | 10391 ft | 302 kts | 296° |
| 2026-05-04 11:56 | 48.22238 | 17.25135 | 10564 ft | 318 kts | 278° |
| 2026-05-04 11:56 | 48.22714 | 17.21808 | 10906 ft | 333 kts | 278° |
| 2026-05-04 11:57 | 48.23199 | 17.18411 | 11483 ft | 340 kts | 279° |
| 2026-05-04 11:57 | 48.23703 | 17.14942 | 12221 ft | 342 kts | 279° |
| 2026-05-04 11:57 | 48.24215 | 17.11461 | 13001 ft | 343 kts | 279° |
| 2026-05-04 11:57 | 48.24735 | 17.07946 | 13720 ft | 348 kts | 279° |
| 2026-05-04 11:58 | 48.25262 | 17.04378 | 14424 ft | 351 kts | 279° |
| 2026-05-04 11:58 | 48.25792 | 17.00788 | 15155 ft | 353 kts | 279° |
| 2026-05-04 11:58 | 48.26204 | 16.97151 | 15835 ft | 355 kts | 268° |
| 2026-05-04 11:58 | 48.25794 | 16.93537 | 16505 ft | 352 kts | 247° |
| 2026-05-04 11:59 | 48.24640 | 16.90278 | 17089 ft | 358 kts | 232° |
| 2026-05-04 11:59 | 48.22891 | 16.87656 | 17920 ft | 356 kts | 219° |
| 2026-05-04 11:59 | 48.20956 | 16.85314 | 18625 ft | 360 kts | 217° |
| 2026-05-04 11:59 | 48.18935 | 16.83017 | 19173 ft | 368 kts | 217° |
| 2026-05-04 12:00 | 48.16878 | 16.80723 | 19857 ft | 370 kts | 217° |
| 2026-05-04 12:00 | 48.14798 | 16.78404 | 20518 ft | 373 kts | 217° |
| 2026-05-04 12:00 | 48.12714 | 16.76079 | 21268 ft | 373 kts | 217° |
| 2026-05-04 12:00 | 48.10643 | 16.73737 | 21900 ft | 377 kts | 218° |
| 2026-05-04 12:01 | 48.08551 | 16.71347 | 22458 ft | 381 kts | 218° |
| 2026-05-04 12:01 | 48.06439 | 16.68923 | 22974 ft | 384 kts | 218° |
| 2026-05-04 12:02 | 47.93358 | 16.53934 | 25678 ft | 404 kts | 219° |
| 2026-05-04 12:03 | 47.91117 | 16.51379 | 26051 ft | 409 kts | 218° |
| 2026-05-04 12:03 | 47.88837 | 16.48783 | 26379 ft | 414 kts | 218° |
| 2026-05-04 12:03 | 47.86547 | 16.46181 | 26904 ft | 413 kts | 218° |
| 2026-05-04 12:03 | 47.84250 | 16.43575 | 27264 ft | 417 kts | 218° |
| 2026-05-04 12:04 | 47.81929 | 16.40941 | 27544 ft | 423 kts | 219° |
| 2026-05-04 12:04 | 47.79579 | 16.38269 | 27881 ft | 427 kts | 219° |
| 2026-05-04 12:04 | 47.77207 | 16.35577 | 28213 ft | 430 kts | 219° |
| 2026-05-04 12:04 | 47.74824 | 16.32877 | 28547 ft | 434 kts | 218° |
| 2026-05-04 12:05 | 47.72410 | 16.30153 | 28908 ft | 436 kts | 220° |
| 2026-05-04 12:05 | 47.69991 | 16.27428 | 29335 ft | 436 kts | 220° |
| 2026-05-04 12:05 | 47.67576 | 16.24707 | 29739 ft | 437 kts | 219° |
| 2026-05-04 12:05 | 47.65144 | 16.21970 | 30029 ft | 440 kts | 220° |
| 2026-05-04 12:06 | 47.62707 | 16.19230 | 30382 ft | 440 kts | 220° |
| 2026-05-04 12:06 | 47.60269 | 16.16495 | 30742 ft | 440 kts | 220° |
| 2026-05-04 12:06 | 47.57825 | 16.13753 | 31077 ft | 440 kts | 218° |
| 2026-05-04 12:06 | 47.55388 | 16.11024 | 31513 ft | 438 kts | 220° |
| 2026-05-04 12:07 | 47.52964 | 16.08311 | 31976 ft | 436 kts | 218° |
| 2026-05-04 12:07 | 47.50548 | 16.05610 | 32267 ft | 437 kts | 219° |
| 2026-05-04 12:07 | 47.48113 | 16.02891 | 32507 ft | 439 kts | 220° |
| 2026-05-04 12:07 | 47.45684 | 16.00181 | 32958 ft | 436 kts | 220° |
| 2026-05-04 12:08 | 47.43270 | 15.97493 | 33409 ft | 433 kts | 219° |
| 2026-05-04 12:08 | 47.40861 | 15.94811 | 33713 ft | 434 kts | 219° |
| 2026-05-04 12:08 | 47.38448 | 15.92133 | 34061 ft | 433 kts | 220° |
| 2026-05-04 12:08 | 47.36050 | 15.89475 | 34438 ft | 431 kts | 220° |
| 2026-05-04 12:09 | 47.33659 | 15.86826 | 34736 ft | 429 kts | 219° |
| 2026-05-04 12:09 | 47.31267 | 15.84178 | 34973 ft | 431 kts | 219° |
| 2026-05-04 12:09 | 47.28868 | 15.81523 | 35229 ft | 431 kts | 219° |
| 2026-05-04 12:09 | 47.26475 | 15.78879 | 35574 ft | 429 kts | 219° |
| 2026-05-04 12:10 | 47.24091 | 15.76248 | 35931 ft | 427 kts | 219° |
| 2026-05-04 12:10 | 47.21713 | 15.73627 | 36038 ft | 430 kts | 219° |
| 2026-05-04 12:10 | 47.17718 | 15.69227 | 36038 ft | 433 kts | 219° |
| 2026-05-04 12:11 | 47.12925 | 15.63962 | 36020 ft | 427 kts | 219° |
| 2026-05-04 12:11 | 47.07415 | 15.57923 | 36046 ft | 426 kts | 219° |
| 2026-05-04 12:12 | 47.03438 | 15.53569 | 36054 ft | 426 kts | 219° |
| 2026-05-04 12:12 | 46.98684 | 15.48379 | 36050 ft | 427 kts | 219° |
| 2026-05-04 12:14 | 46.82827 | 15.22975 | 36055 ft | 424 kts | 231° |
| 2026-05-04 12:15 | 46.79025 | 15.16399 | 36037 ft | 424 kts | 231° |
| 2026-05-04 12:15 | 46.75212 | 15.09833 | 36040 ft | 424 kts | 231° |
| 2026-05-04 12:16 | 46.71398 | 15.03281 | 36039 ft | 424 kts | 231° |
| 2026-05-04 12:16 | 46.67582 | 14.96742 | 36050 ft | 423 kts | 231° |
| 2026-05-04 12:17 | 46.63790 | 14.90259 | 36040 ft | 423 kts | 231° |
| 2026-05-04 12:17 | 46.59968 | 14.83739 | 36047 ft | 423 kts | 231° |
| 2026-05-04 12:18 | 46.56149 | 14.77238 | 36047 ft | 423 kts | 231° |
| 2026-05-04 12:18 | 46.52330 | 14.70754 | 36060 ft | 422 kts | 231° |
| 2026-05-04 12:19 | 46.48511 | 14.64285 | 36055 ft | 422 kts | 231° |
| 2026-05-04 12:19 | 46.44699 | 14.57845 | 36062 ft | 420 kts | 230° |
| 2026-05-04 12:20 | 46.40866 | 14.51380 | 36059 ft | 419 kts | 231° |
| 2026-05-04 12:20 | 46.37093 | 14.45034 | 36067 ft | 418 kts | 231° |
| 2026-05-04 12:21 | 46.33305 | 14.38680 | 36082 ft | 416 kts | 231° |
| 2026-05-04 12:21 | 46.29521 | 14.32342 | 36077 ft | 416 kts | 230° |
| 2026-05-04 12:22 | 46.25739 | 14.26025 | 36080 ft | 416 kts | 231° |
| 2026-05-04 12:22 | 46.21944 | 14.19700 | 36081 ft | 417 kts | 231° |
| 2026-05-04 12:23 | 46.18115 | 14.13331 | 36074 ft | 417 kts | 230° |
| 2026-05-04 12:23 | 46.14303 | 14.07006 | 36085 ft | 418 kts | 231° |
| 2026-05-04 12:24 | 46.10486 | 14.00689 | 36092 ft | 418 kts | 230° |
| 2026-05-04 12:24 | 46.06659 | 13.94369 | 36084 ft | 419 kts | 230° |
| 2026-05-04 12:25 | 46.02828 | 13.88056 | 36096 ft | 419 kts | 230° |
| 2026-05-04 12:25 | 45.98990 | 13.81744 | 36094 ft | 420 kts | 230° |
| 2026-05-04 12:26 | 45.95150 | 13.75440 | 36104 ft | 420 kts | 230° |
| 2026-05-04 12:26 | 45.91299 | 13.69129 | 36096 ft | 420 kts | 230° |
| 2026-05-04 12:27 | 45.87442 | 13.62821 | 36099 ft | 420 kts | 232° |
| 2026-05-04 12:27 | 45.85767 | 13.59410 | 35997 ft | 417 kts | 241° |
| 2026-05-04 12:27 | 45.84483 | 13.55703 | 35799 ft | 414 kts | 249° |
| 2026-05-04 12:28 | 45.83568 | 13.51823 | 35626 ft | 410 kts | 249° |
| 2026-05-04 12:28 | 45.82167 | 13.48281 | 35429 ft | 412 kts | 230° |
| 2026-05-04 12:28 | 45.80081 | 13.45451 | 35295 ft | 416 kts | 217° |
| 2026-05-04 12:28 | 45.77609 | 13.43261 | 35173 ft | 419 kts | 211° |
| 2026-05-04 12:29 | 45.72527 | 13.39125 | 35099 ft | 420 kts | 211° |
| 2026-05-04 12:29 | 45.67452 | 13.34988 | 35089 ft | 419 kts | 211° |
| 2026-05-04 12:30 | 45.62404 | 13.30817 | 35090 ft | 419 kts | 211° |
| 2026-05-04 12:30 | 45.57373 | 13.26639 | 35088 ft | 418 kts | 211° |
| 2026-05-04 12:31 | 45.52346 | 13.22464 | 35099 ft | 418 kts | 211° |
| 2026-05-04 12:31 | 45.47315 | 13.18294 | 35095 ft | 418 kts | 211° |
| 2026-05-04 12:32 | 45.39772 | 13.12058 | 35079 ft | 418 kts | 211° |
| 2026-05-04 12:33 | 45.34734 | 13.07906 | 35100 ft | 418 kts | 211° |
| 2026-05-04 12:33 | 45.29693 | 13.03759 | 35078 ft | 419 kts | 211° |
| 2026-05-04 12:34 | 45.24644 | 12.99615 | 35086 ft | 419 kts | 211° |
| 2026-05-04 12:34 | 45.19595 | 12.95478 | 35095 ft | 419 kts | 211° |
| 2026-05-04 12:35 | 45.14543 | 12.91348 | 35094 ft | 419 kts | 211° |
| 2026-05-04 12:35 | 45.09488 | 12.87225 | 35080 ft | 419 kts | 211° |
| 2026-05-04 12:36 | 45.04431 | 12.83108 | 35094 ft | 419 kts | 211° |
| 2026-05-04 12:36 | 44.99377 | 12.79002 | 35092 ft | 419 kts | 211° |
| 2026-05-04 12:37 | 44.94326 | 12.74907 | 35090 ft | 418 kts | 211° |
| 2026-05-04 12:37 | 44.89278 | 12.70822 | 35097 ft | 418 kts | 211° |
| 2026-05-04 12:38 | 44.84241 | 12.66755 | 35096 ft | 417 kts | 211° |
| 2026-05-04 12:38 | 44.79205 | 12.62697 | 35093 ft | 416 kts | 211° |
| 2026-05-04 12:39 | 44.74180 | 12.58657 | 35099 ft | 416 kts | 211° |
| 2026-05-04 12:39 | 44.69161 | 12.54628 | 35092 ft | 415 kts | 211° |
| 2026-05-04 12:40 | 44.64144 | 12.50608 | 35098 ft | 415 kts | 211° |
| 2026-05-04 12:40 | 44.59130 | 12.46600 | 35102 ft | 415 kts | 211° |
| 2026-05-04 12:41 | 44.54104 | 12.42590 | 35099 ft | 416 kts | 211° |
| 2026-05-04 12:41 | 44.49071 | 12.38583 | 35096 ft | 416 kts | 211° |
| 2026-05-04 12:42 | 44.44027 | 12.34575 | 35105 ft | 417 kts | 211° |
| 2026-05-04 12:42 | 44.38972 | 12.30566 | 35111 ft | 418 kts | 211° |
| 2026-05-04 12:43 | 44.33935 | 12.26580 | 35103 ft | 419 kts | 211° |
| 2026-05-04 12:43 | 44.28858 | 12.22569 | 35132 ft | 420 kts | 211° |
| 2026-05-04 12:44 | 44.23771 | 12.18560 | 35102 ft | 420 kts | 211° |
| 2026-05-04 12:44 | 44.18682 | 12.14556 | 35102 ft | 420 kts | 211° |
| 2026-05-04 12:45 | 44.13600 | 12.10565 | 35106 ft | 419 kts | 211° |
| 2026-05-04 12:45 | 44.08517 | 12.06582 | 35104 ft | 419 kts | 211° |
| 2026-05-04 12:46 | 44.03443 | 12.02613 | 35113 ft | 418 kts | 211° |
| 2026-05-04 12:46 | 43.98372 | 11.98653 | 35095 ft | 418 kts | 211° |
| 2026-05-04 12:47 | 43.93307 | 11.94705 | 35110 ft | 417 kts | 212° |
| 2026-05-04 12:47 | 43.88296 | 11.90807 | 34780 ft | 408 kts | 212° |
| 2026-05-04 12:47 | 43.85817 | 11.88878 | 34207 ft | 410 kts | 211° |
| 2026-05-04 12:48 | 43.83319 | 11.86937 | 33447 ft | 414 kts | 211° |
| 2026-05-04 12:48 | 43.80793 | 11.84969 | 32703 ft | 418 kts | 212° |
| 2026-05-04 12:48 | 43.78437 | 11.82620 | 31973 ft | 418 kts | 222° |
| 2026-05-04 12:48 | 43.76364 | 11.79794 | 31300 ft | 420 kts | 229° |
| 2026-05-04 12:49 | 43.74618 | 11.76556 | 30665 ft | 421 kts | 235° |
| 2026-05-04 12:49 | 43.73004 | 11.73171 | 30064 ft | 422 kts | 236° |
| 2026-05-04 12:49 | 43.71408 | 11.69787 | 29509 ft | 418 kts | 236° |
| 2026-05-04 12:49 | 43.69824 | 11.66442 | 29037 ft | 413 kts | 236° |
| 2026-05-04 12:50 | 43.68253 | 11.63150 | 28584 ft | 408 kts | 236° |
| 2026-05-04 12:50 | 43.66689 | 11.59896 | 28100 ft | 404 kts | 236° |
| 2026-05-04 12:50 | 43.65135 | 11.56676 | 27562 ft | 402 kts | 236° |
| 2026-05-04 12:50 | 43.63584 | 11.53471 | 27051 ft | 400 kts | 236° |
| 2026-05-04 12:51 | 43.62045 | 11.50295 | 26599 ft | 396 kts | 236° |
| 2026-05-04 12:51 | 43.60518 | 11.47144 | 26145 ft | 393 kts | 236° |
| 2026-05-04 12:51 | 43.59004 | 11.44028 | 25682 ft | 391 kts | 236° |
| 2026-05-04 12:51 | 43.58000 | 11.41966 | 25379 ft | 389 kts | 236° |
| 2026-05-04 12:52 | 43.56595 | 11.38809 | 24915 ft | 385 kts | 244° |
| 2026-05-04 12:52 | 43.55651 | 11.35362 | 24452 ft | 384 kts | 254° |
| 2026-05-04 12:52 | 43.55110 | 11.31782 | 24026 ft | 381 kts | 263° |
| 2026-05-04 12:52 | 43.54993 | 11.28144 | 23607 ft | 378 kts | 268° |
| 2026-05-04 12:53 | 43.54964 | 11.24542 | 23158 ft | 374 kts | 268° |
| 2026-05-04 12:53 | 43.54939 | 11.20970 | 22666 ft | 372 kts | 268° |
| 2026-05-04 12:53 | 43.54903 | 11.17419 | 22187 ft | 369 kts | 268° |
| 2026-05-04 12:53 | 43.54855 | 11.13895 | 21729 ft | 366 kts | 268° |
| 2026-05-04 12:54 | 43.54799 | 11.10398 | 21257 ft | 364 kts | 267° |
| 2026-05-04 12:54 | 43.54735 | 11.06920 | 20800 ft | 362 kts | 266° |
| 2026-05-04 12:54 | 43.54408 | 11.03502 | 20350 ft | 358 kts | 257° |
| 2026-05-04 12:54 | 43.53673 | 11.00241 | 19909 ft | 356 kts | 249° |
| 2026-05-04 12:55 | 43.52797 | 10.97061 | 19483 ft | 354 kts | 249° |
| 2026-05-04 12:55 | 43.51921 | 10.93910 | 19053 ft | 351 kts | 249° |
| 2026-05-04 12:55 | 43.51057 | 10.90776 | 18626 ft | 349 kts | 249° |
| 2026-05-04 12:55 | 43.50207 | 10.87660 | 18174 ft | 347 kts | 249° |
| 2026-05-04 12:56 | 43.49365 | 10.84550 | 17701 ft | 345 kts | 249° |
| 2026-05-04 12:56 | 43.48530 | 10.81467 | 17251 ft | 343 kts | 249° |
| 2026-05-04 12:56 | 43.47698 | 10.78404 | 16795 ft | 341 kts | 248° |
| 2026-05-04 12:56 | 43.46657 | 10.75488 | 16308 ft | 339 kts | 231° |
| 2026-05-04 12:57 | 43.44968 | 10.73270 | 15898 ft | 336 kts | 214° |
| 2026-05-04 12:57 | 43.42888 | 10.71845 | 15518 ft | 333 kts | 200° |
| 2026-05-04 12:57 | 43.40699 | 10.70840 | 15144 ft | 330 kts | 198° |
| 2026-05-04 12:57 | 43.38518 | 10.69878 | 14758 ft | 328 kts | 198° |
| 2026-05-04 12:58 | 43.36356 | 10.68899 | 14384 ft | 326 kts | 198° |
| 2026-05-04 12:58 | 43.34216 | 10.67913 | 14037 ft | 323 kts | 198° |
| 2026-05-04 12:58 | 43.32159 | 10.66735 | 13565 ft | 321 kts | 213° |
| 2026-05-04 12:58 | 43.30557 | 10.64615 | 13060 ft | 323 kts | 234° |
| 2026-05-04 12:59 | 43.29597 | 10.61845 | 12646 ft | 324 kts | 251° |
| 2026-05-04 12:59 | 43.29292 | 10.58760 | 12120 ft | 331 kts | 269° |
| 2026-05-04 12:59 | 43.29640 | 10.55641 | 11779 ft | 330 kts | 279° |
| 2026-05-04 12:59 | 43.30140 | 10.52594 | 11574 ft | 323 kts | 279° |
| 2026-05-04 13:00 | 43.30656 | 10.49631 | 11359 ft | 316 kts | 279° |
| 2026-05-04 13:00 | 43.31158 | 10.46723 | 11156 ft | 310 kts | 280° |
| 2026-05-04 13:00 | 43.31641 | 10.43870 | 10950 ft | 304 kts | 279° |
| 2026-05-04 13:00 | 43.32100 | 10.41106 | 10750 ft | 298 kts | 278° |
| 2026-05-04 13:01 | 43.32557 | 10.38319 | 10547 ft | 293 kts | 279° |
| 2026-05-04 13:01 | 43.32993 | 10.35648 | 10352 ft | 288 kts | 279° |
| 2026-05-04 13:01 | 43.33431 | 10.32948 | 10115 ft | 285 kts | 279° |
| 2026-05-04 13:01 | 43.33856 | 10.30318 | 9793 ft | 286 kts | 279° |
| 2026-05-04 13:02 | 43.34290 | 10.27618 | 9484 ft | 285 kts | 279° |
| 2026-05-04 13:02 | 43.34716 | 10.24963 | 9182 ft | 284 kts | 278° |
| 2026-05-04 13:02 | 43.35226 | 10.22347 | 8885 ft | 286 kts | 292° |
| 2026-05-04 13:02 | 43.36336 | 10.20076 | 8587 ft | 285 kts | 306° |
| 2026-05-04 13:03 | 43.37542 | 10.17920 | 8213 ft | 284 kts | 305° |
| 2026-05-04 13:03 | 43.38753 | 10.15762 | 7814 ft | 284 kts | 309° |
| 2026-05-04 13:03 | 43.40340 | 10.14192 | 7407 ft | 285 kts | 342° |
| 2026-05-04 13:03 | 43.42274 | 10.14047 | 7070 ft | 279 kts | 17° |
| 2026-05-04 13:04 | 43.44006 | 10.15169 | 6658 ft | 275 kts | 33° |
| 2026-05-04 13:04 | 43.45653 | 10.16535 | 6245 ft | 274 kts | 34° |
| 2026-05-04 13:04 | 43.47249 | 10.17899 | 5810 ft | 268 kts | 36° |
| 2026-05-04 13:04 | 43.48789 | 10.19335 | 5262 ft | 266 kts | 38° |
| 2026-05-04 13:05 | 43.50258 | 10.20787 | 4796 ft | 259 kts | 40° |
| 2026-05-04 13:05 | 43.51691 | 10.22242 | 4324 ft | 252 kts | 39° |
| 2026-05-04 13:05 | 43.53085 | 10.23665 | 3857 ft | 247 kts | 40° |
| 2026-05-04 13:05 | 43.54473 | 10.25036 | 3406 ft | 244 kts | 38° |
| 2026-05-04 13:06 | 43.55819 | 10.26406 | 2966 ft | 238 kts | 40° |
| 2026-05-04 13:06 | 43.57132 | 10.27768 | 2545 ft | 232 kts | 39° |
| 2026-05-04 13:06 | 43.58389 | 10.29072 | 2229 ft | 221 kts | 39° |
| 2026-05-04 13:06 | 43.59598 | 10.30327 | 1921 ft | 207 kts | 38° |
| 2026-05-04 13:07 | 43.60691 | 10.31459 | 1671 ft | 191 kts | 39° |
| 2026-05-04 13:07 | 43.61709 | 10.32515 | 1435 ft | 178 kts | 39° |
| 2026-05-04 13:07 | 43.62667 | 10.33511 | 1231 ft | 161 kts | 36° |
| 2026-05-04 13:07 | 43.63538 | 10.34413 | 975 ft | 156 kts | 38° |
| 2026-05-04 13:08 | 43.64361 | 10.35306 | 822 ft | 153 kts | 38° |
| 2026-05-04 13:08 | 43.65234 | 10.36170 | 546 ft | 155 kts | 36° |
| 2026-05-04 13:08 | 43.66126 | 10.37058 | 372 ft | 156 kts | 37° |
| 2026-05-04 13:08 | 43.66968 | 10.37952 | 162 ft | 153 kts | 38° |
| 2026-05-04 13:09 | 43.67816 | 10.38846 | 18 ft | 148 kts | 38° |
| 2026-05-04 13:09 | 43.68556 | 10.39611 | 11 ft | 111 kts | 36° |
| 2026-05-04 13:09 | 43.69001 | 10.40069 | 10 ft | 52 kts | 37° |
| 2026-05-04 13:09 | 43.69204 | 10.40280 | 10 ft | 19 kts | 36° |
| 2026-05-04 13:10 | 43.69278 | 10.40296 | 11 ft | 10 kts | 320° |
| 2026-05-04 13:10 | 43.69320 | 10.40219 | 14 ft | 10 kts | 306° |
| 2026-05-04 13:10 | 43.69355 | 10.40152 | 17 ft | 8 kts | 295° |
| 2026-05-04 13:10 | 43.69334 | 10.40082 | 17 ft | 10 kts | 218° |
| 2026-05-04 13:11 | 43.69275 | 10.40021 | 17 ft | 11 kts | 217° |
| 2026-05-04 13:11 | 43.69231 | 10.39960 | 17 ft | 6 kts | 254° |
| 2026-05-04 13:11 | 43.69265 | 10.39911 | 16 ft | 10 kts | 345° |
| 2026-05-04 13:11 | 43.69355 | 10.39893 | 15 ft | 16 kts | 354° |
| 2026-05-04 13:12 | 43.69453 | 10.39865 | 14 ft | 12 kts | 319° |
| 2026-05-04 13:12 | 43.69493 | 10.39774 | 14 ft | 11 kts | 337° |
| 2026-05-04 13:12 | 43.69566 | 10.39780 | 14 ft | 10 kts | 9° |
| 2026-05-04 13:12 | 43.69636 | 10.39795 | 14 ft | 10 kts | 9° |
| 2026-05-04 13:13 | 43.69695 | 10.39825 | 15 ft | 6 kts | 48° |
| 2026-05-04 13:13 | 43.69714 | 10.39848 | 13 ft | 3 kts | 28° |
| 2026-05-04 13:13 | 43.69737 | 10.39855 | 13 ft | 4 kts | 8° |
| 2026-05-04 13:13 | 43.69761 | 10.39860 | 13 ft | 2 kts | 9° |
| 2026-05-04 13:14 | 43.69764 | 10.39861 | 13 ft | 0 kts | 8° |